Terminal Aerodrome Forecast
Issued by NWS

Home | Current Version | Previous Version | Graphics & Text | Print | Product List | Glossary On
Versions: 1 2 3 4 5 6 7 8 9 10 11 12 13 14 15 16 17 18 19 20 21 22 23 24 25 26 27 28 29 30 31 32
972
FTUS43 KDLH 240621 AAA
TAFHYR
TAF AMD
KHYR 240621Z 2406/2506 00000KT 5SM BR OVC003
     FM241100 00000KT 2SM BR OVC005
     FM241500 00000KT P6SM OVC008
     FM241700 00000KT P6SM OVC012
     FM242200 00000KT P6SM VCSH OVC015
     FM250200 05004KT 5SM -SN BR OVC008=

USA.gov is the U.S. government's official web portal to all federal, state and local government web resources and services.